sensor_id;sensor_type;location;lat;lon;timestamp;P1;durP1;ratioP1;P2;durP2;ratioP2
68256;SDS011;55069;51.568;4.656;2023-03-19T00:01:22;5.27;;;3.50;;
68256;SDS011;55069;51.568;4.656;2023-03-19T00:03:47;6.85;;;4.50;;
68256;SDS011;55069;51.568;4.656;2023-03-19T00:06:13;7.57;;;4.05;;
68256;SDS011;55069;51.568;4.656;2023-03-19T00:08:39;7.32;;;4.40;;
68256;SDS011;55069;51.568;4.656;2023-03-19T00:11:07;8.15;;;4.93;;
68256;SDS011;55069;51.568;4.656;2023-03-19T00:13:33;7.53;;;4.47;;
68256;SDS011;55069;51.568;4.656;2023-03-19T00:16:00;5.88;;;3.72;;
68256;SDS011;55069;51.568;4.656;2023-03-19T00:18:25;6.47;;;4.87;;
68256;SDS011;55069;51.568;4.656;2023-03-19T00:20:51;7.20;;;4.60;;
68256;SDS011;55069;51.568;4.656;2023-03-19T00:23:16;5.80;;;3.93;;
68256;SDS011;55069;51.568;4.656;2023-03-19T00:25:42;6.13;;;4.43;;
68256;SDS011;55069;51.568;4.656;2023-03-19T00:28:08;7.20;;;4.55;;
68256;SDS011;55069;51.568;4.656;2023-03-19T00:30:34;7.47;;;4.40;;
68256;SDS011;55069;51.568;4.656;2023-03-19T00:33:00;9.48;;;4.38;;
68256;SDS011;55069;51.568;4.656;2023-03-19T00:35:26;9.05;;;4.78;;
68256;SDS011;55069;51.568;4.656;2023-03-19T00:37:52;7.82;;;4.90;;
68256;SDS011;55069;51.568;4.656;2023-03-19T00:40:19;7.07;;;4.93;;
68256;SDS011;55069;51.568;4.656;2023-03-19T00:42:46;9.48;;;5.00;;
68256;SDS011;55069;51.568;4.656;2023-03-19T00:45:11;12.25;;;6.65;;
68256;SDS011;55069;51.568;4.656;2023-03-19T00:47:38;18.43;;;11.57;;
68256;SDS011;55069;51.568;4.656;2023-03-19T00:50:03;9.10;;;5.57;;
68256;SDS011;55069;51.568;4.656;2023-03-19T00:52:31;8.90;;;4.82;;
68256;SDS011;55069;51.568;4.656;2023-03-19T00:54:57;7.50;;;4.70;;
68256;SDS011;55069;51.568;4.656;2023-03-19T00:57:23;8.38;;;5.05;;
68256;SDS011;55069;51.568;4.656;2023-03-19T00:59:49;12.38;;;6.05;;
68256;SDS011;55069;51.568;4.656;2023-03-19T01:02:15;7.40;;;4.70;;
68256;SDS011;55069;51.568;4.656;2023-03-19T01:04:41;8.23;;;5.38;;
68256;SDS011;55069;51.568;4.656;2023-03-19T01:07:07;8.25;;;5.03;;
68256;SDS011;55069;51.568;4.656;2023-03-19T01:09:33;10.50;;;5.95;;
68256;SDS011;55069;51.568;4.656;2023-03-19T01:12:00;10.88;;;5.50;;
68256;SDS011;55069;51.568;4.656;2023-03-19T01:14:30;8.85;;;5.53;;
68256;SDS011;55069;51.568;4.656;2023-03-19T01:16:56;7.80;;;5.70;;
68256;SDS011;55069;51.568;4.656;2023-03-19T01:19:22;8.93;;;5.68;;
68256;SDS011;55069;51.568;4.656;2023-03-19T01:21:48;9.98;;;6.07;;
68256;SDS011;55069;51.568;4.656;2023-03-19T01:24:18;10.23;;;6.00;;
68256;SDS011;55069;51.568;4.656;2023-03-19T01:26:47;9.80;;;6.33;;
68256;SDS011;55069;51.568;4.656;2023-03-19T01:29:24;10.43;;;5.30;;
68256;SDS011;55069;51.568;4.656;2023-03-19T01:31:49;10.20;;;6.40;;
68256;SDS011;55069;51.568;4.656;2023-03-19T01:34:43;8.80;;;6.45;;
68256;SDS011;55069;51.568;4.656;2023-03-19T01:37:12;14.40;;;6.32;;
68256;SDS011;55069;51.568;4.656;2023-03-19T01:39:38;11.10;;;6.27;;
68256;SDS011;55069;51.568;4.656;2023-03-19T01:42:08;8.55;;;5.53;;
68256;SDS011;55069;51.568;4.656;2023-03-19T01:44:52;9.98;;;5.80;;
68256;SDS011;55069;51.568;4.656;2023-03-19T01:47:30;9.85;;;6.30;;
68256;SDS011;55069;51.568;4.656;2023-03-19T01:50:20;8.25;;;6.15;;
68256;SDS011;55069;51.568;4.656;2023-03-19T01:53:16;9.13;;;5.80;;
68256;SDS011;55069;51.568;4.656;2023-03-19T01:55:47;9.93;;;5.90;;
68256;SDS011;55069;51.568;4.656;2023-03-19T01:58:31;10.65;;;6.72;;
68256;SDS011;55069;51.568;4.656;2023-03-19T02:01:09;10.45;;;6.72;;
68256;SDS011;55069;51.568;4.656;2023-03-19T02:03:41;9.93;;;6.65;;
68256;SDS011;55069;51.568;4.656;2023-03-19T02:06:20;10.07;;;7.30;;
68256;SDS011;55069;51.568;4.656;2023-03-19T02:08:48;10.15;;;6.53;;
68256;SDS011;55069;51.568;4.656;2023-03-19T02:11:15;11.63;;;7.40;;
68256;SDS011;55069;51.568;4.656;2023-03-19T02:13:43;11.90;;;7.40;;
68256;SDS011;55069;51.568;4.656;2023-03-19T02:16:09;10.10;;;6.25;;
68256;SDS011;55069;51.568;4.656;2023-03-19T02:18:35;12.60;;;7.10;;
68256;SDS011;55069;51.568;4.656;2023-03-19T02:21:05;11.55;;;7.97;;
68256;SDS011;55069;51.568;4.656;2023-03-19T02:26:40;10.98;;;7.53;;
68256;SDS011;55069;51.568;4.656;2023-03-19T02:29:06;11.68;;;7.68;;
68256;SDS011;55069;51.568;4.656;2023-03-19T02:31:34;11.47;;;7.53;;
68256;SDS011;55069;51.568;4.656;2023-03-19T02:34:01;12.48;;;7.70;;
68256;SDS011;55069;51.568;4.656;2023-03-19T02:36:31;16.33;;;9.25;;
68256;SDS011;55069;51.568;4.656;2023-03-19T02:39:02;14.02;;;7.38;;
68256;SDS011;55069;51.568;4.656;2023-03-19T02:41:32;10.68;;;8.45;;
68256;SDS011;55069;51.568;4.656;2023-03-19T02:44:01;12.30;;;8.27;;
68256;SDS011;55069;51.568;4.656;2023-03-19T02:46:28;14.73;;;7.45;;
68256;SDS011;55069;51.568;4.656;2023-03-19T02:48:54;11.45;;;9.00;;
68256;SDS011;55069;51.568;4.656;2023-03-19T02:51:20;17.10;;;8.87;;
68256;SDS011;55069;51.568;4.656;2023-03-19T02:53:45;14.50;;;7.93;;
68256;SDS011;55069;51.568;4.656;2023-03-19T02:56:11;12.90;;;8.67;;
68256;SDS011;55069;51.568;4.656;2023-03-19T02:58:36;14.53;;;8.53;;
68256;SDS011;55069;51.568;4.656;2023-03-19T03:01:02;12.02;;;7.85;;
68256;SDS011;55069;51.568;4.656;2023-03-19T03:03:28;14.60;;;8.83;;
68256;SDS011;55069;51.568;4.656;2023-03-19T03:05:54;11.60;;;8.40;;
68256;SDS011;55069;51.568;4.656;2023-03-19T03:08:20;11.85;;;8.73;;
68256;SDS011;55069;51.568;4.656;2023-03-19T03:10:46;12.00;;;8.83;;
68256;SDS011;55069;51.568;4.656;2023-03-19T03:13:12;14.10;;;8.15;;
68256;SDS011;55069;51.568;4.656;2023-03-19T03:15:38;11.50;;;8.25;;
68256;SDS011;55069;51.568;4.656;2023-03-19T03:18:04;11.00;;;7.50;;
68256;SDS011;55069;51.568;4.656;2023-03-19T03:20:30;13.00;;;8.02;;
68256;SDS011;55069;51.568;4.656;2023-03-19T03:22:56;10.87;;;8.57;;
68256;SDS011;55069;51.568;4.656;2023-03-19T03:25:21;11.65;;;8.80;;
68256;SDS011;55069;51.568;4.656;2023-03-19T03:27:47;11.07;;;8.67;;
68256;SDS011;55069;51.568;4.656;2023-03-19T03:30:13;12.43;;;8.75;;
68256;SDS011;55069;51.568;4.656;2023-03-19T03:32:40;14.82;;;10.15;;
68256;SDS011;55069;51.568;4.656;2023-03-19T03:35:06;13.70;;;9.17;;
68256;SDS011;55069;51.568;4.656;2023-03-19T03:37:33;13.15;;;9.45;;
68256;SDS011;55069;51.568;4.656;2023-03-19T03:39:58;13.20;;;9.45;;
68256;SDS011;55069;51.568;4.656;2023-03-19T03:42:24;13.80;;;9.33;;
68256;SDS011;55069;51.568;4.656;2023-03-19T03:44:50;15.30;;;9.48;;
68256;SDS011;55069;51.568;4.656;2023-03-19T03:47:16;16.03;;;9.83;;
68256;SDS011;55069;51.568;4.656;2023-03-19T03:49:42;15.43;;;9.23;;
68256;SDS011;55069;51.568;4.656;2023-03-19T03:52:08;12.95;;;9.80;;
68256;SDS011;55069;51.568;4.656;2023-03-19T03:54:34;12.90;;;8.88;;
68256;SDS011;55069;51.568;4.656;2023-03-19T03:57:00;14.00;;;9.50;;
68256;SDS011;55069;51.568;4.656;2023-03-19T03:59:26;19.10;;;11.60;;
68256;SDS011;55069;51.568;4.656;2023-03-19T04:01:52;13.77;;;9.60;;
68256;SDS011;55069;51.568;4.656;2023-03-19T04:04:18;14.53;;;10.20;;
68256;SDS011;55069;51.568;4.656;2023-03-19T04:06:44;16.27;;;9.98;;
68256;SDS011;55069;51.568;4.656;2023-03-19T04:09:15;12.82;;;9.43;;
68256;SDS011;55069;51.568;4.656;2023-03-19T04:11:41;13.07;;;8.77;;
68256;SDS011;55069;51.568;4.656;2023-03-19T04:14:07;8.73;;;6.90;;
68256;SDS011;55069;51.568;4.656;2023-03-19T04:16:34;8.25;;;6.10;;
68256;SDS011;55069;51.568;4.656;2023-03-19T04:18:59;7.70;;;5.83;;
68256;SDS011;55069;51.568;4.656;2023-03-19T04:21:25;9.32;;;6.70;;
68256;SDS011;55069;51.568;4.656;2023-03-19T04:23:52;8.73;;;6.77;;
68256;SDS011;55069;51.568;4.656;2023-03-19T04:26:18;11.02;;;7.07;;
68256;SDS011;55069;51.568;4.656;2023-03-19T04:28:44;8.80;;;6.00;;
68256;SDS011;55069;51.568;4.656;2023-03-19T04:31:09;9.55;;;6.32;;
68256;SDS011;55069;51.568;4.656;2023-03-19T04:33:39;9.27;;;6.40;;
68256;SDS011;55069;51.568;4.656;2023-03-19T04:36:05;28.95;;;6.10;;
68256;SDS011;55069;51.568;4.656;2023-03-19T04:38:33;25.10;;;5.35;;
68256;SDS011;55069;51.568;4.656;2023-03-19T04:40:58;16.67;;;5.83;;
68256;SDS011;55069;51.568;4.656;2023-03-19T04:43:26;24.90;;;5.30;;
68256;SDS011;55069;51.568;4.656;2023-03-19T04:45:53;15.55;;;5.47;;
68256;SDS011;55069;51.568;4.656;2023-03-19T04:48:21;18.50;;;5.03;;
68256;SDS011;55069;51.568;4.656;2023-03-19T04:50:49;30.47;;;6.03;;
68256;SDS011;55069;51.568;4.656;2023-03-19T04:53:17;44.25;;;5.57;;
68256;SDS011;55069;51.568;4.656;2023-03-19T04:55:45;22.10;;;5.32;;
68256;SDS011;55069;51.568;4.656;2023-03-19T04:58:15;9.77;;;5.40;;
68256;SDS011;55069;51.568;4.656;2023-03-19T05:00:41;9.00;;;5.10;;
68256;SDS011;55069;51.568;4.656;2023-03-19T05:03:09;6.67;;;4.87;;
68256;SDS011;55069;51.568;4.656;2023-03-19T05:05:35;7.70;;;4.85;;
68256;SDS011;55069;51.568;4.656;2023-03-19T05:08:05;7.82;;;5.18;;
68256;SDS011;55069;51.568;4.656;2023-03-19T05:10:33;7.05;;;4.75;;
68256;SDS011;55069;51.568;4.656;2023-03-19T05:12:59;10.77;;;5.60;;
68256;SDS011;55069;51.568;4.656;2023-03-19T05:15:25;7.67;;;5.30;;
68256;SDS011;55069;51.568;4.656;2023-03-19T05:17:59;9.77;;;6.97;;
68256;SDS011;55069;51.568;4.656;2023-03-19T05:20:36;9.52;;;6.20;;
68256;SDS011;55069;51.568;4.656;2023-03-19T05:23:06;11.45;;;6.60;;
68256;SDS011;55069;51.568;4.656;2023-03-19T05:25:43;9.03;;;5.97;;
68256;SDS011;55069;51.568;4.656;2023-03-19T05:28:14;9.50;;;6.43;;
68256;SDS011;55069;51.568;4.656;2023-03-19T05:30:40;8.25;;;6.03;;
68256;SDS011;55069;51.568;4.656;2023-03-19T05:33:20;9.48;;;6.47;;
68256;SDS011;55069;51.568;4.656;2023-03-19T05:35:48;7.93;;;6.07;;
68256;SDS011;55069;51.568;4.656;2023-03-19T05:38:22;8.47;;;5.27;;
68256;SDS011;55069;51.568;4.656;2023-03-19T05:40:54;8.77;;;5.93;;
68256;SDS011;55069;51.568;4.656;2023-03-19T05:43:30;9.30;;;5.68;;
68256;SDS011;55069;51.568;4.656;2023-03-19T05:45:56;9.25;;;6.28;;
68256;SDS011;55069;51.568;4.656;2023-03-19T05:48:26;9.63;;;6.75;;
68256;SDS011;55069;51.568;4.656;2023-03-19T05:50:54;10.60;;;7.23;;
68256;SDS011;55069;51.568;4.656;2023-03-19T05:53:21;9.27;;;6.40;;
68256;SDS011;55069;51.568;4.656;2023-03-19T05:56:10;11.93;;;7.00;;
68256;SDS011;55069;51.568;4.656;2023-03-19T05:58:47;10.13;;;6.95;;
68256;SDS011;55069;51.568;4.656;2023-03-19T06:01:18;11.10;;;7.18;;
68256;SDS011;55069;51.568;4.656;2023-03-19T06:03:44;19.47;;;8.90;;
68256;SDS011;55069;51.568;4.656;2023-03-19T06:06:12;18.50;;;9.57;;
68256;SDS011;55069;51.568;4.656;2023-03-19T06:08:41;13.82;;;8.98;;
68256;SDS011;55069;51.568;4.656;2023-03-19T06:11:15;13.60;;;8.43;;
68256;SDS011;55069;51.568;4.656;2023-03-19T06:13:44;16.30;;;9.68;;
68256;SDS011;55069;51.568;4.656;2023-03-19T06:16:14;20.65;;;12.00;;
68256;SDS011;55069;51.568;4.656;2023-03-19T06:18:47;18.17;;;10.10;;
68256;SDS011;55069;51.568;4.656;2023-03-19T06:21:14;15.55;;;9.38;;
68256;SDS011;55069;51.568;4.656;2023-03-19T06:23:39;15.77;;;9.80;;
68256;SDS011;55069;51.568;4.656;2023-03-19T06:26:06;16.42;;;10.25;;
68256;SDS011;55069;51.568;4.656;2023-03-19T06:28:53;18.77;;;10.52;;
68256;SDS011;55069;51.568;4.656;2023-03-19T06:31:19;16.67;;;9.90;;
68256;SDS011;55069;51.568;4.656;2023-03-19T06:33:51;14.18;;;9.52;;
68256;SDS011;55069;51.568;4.656;2023-03-19T06:36:17;15.40;;;8.50;;
68256;SDS011;55069;51.568;4.656;2023-03-19T06:38:44;13.55;;;9.55;;
68256;SDS011;55069;51.568;4.656;2023-03-19T06:41:10;17.52;;;9.90;;
68256;SDS011;55069;51.568;4.656;2023-03-19T06:43:35;14.30;;;9.80;;
68256;SDS011;55069;51.568;4.656;2023-03-19T06:46:02;16.80;;;10.43;;
68256;SDS011;55069;51.568;4.656;2023-03-19T06:48:28;13.90;;;9.02;;
68256;SDS011;55069;51.568;4.656;2023-03-19T06:50:54;16.23;;;10.63;;
68256;SDS011;55069;51.568;4.656;2023-03-19T06:53:20;16.17;;;9.55;;
68256;SDS011;55069;51.568;4.656;2023-03-19T06:55:46;15.97;;;10.30;;
68256;SDS011;55069;51.568;4.656;2023-03-19T06:58:11;18.50;;;10.90;;
68256;SDS011;55069;51.568;4.656;2023-03-19T07:00:37;20.57;;;11.63;;
68256;SDS011;55069;51.568;4.656;2023-03-19T07:03:03;16.85;;;10.88;;
68256;SDS011;55069;51.568;4.656;2023-03-19T07:05:28;17.53;;;10.80;;
68256;SDS011;55069;51.568;4.656;2023-03-19T07:07:54;23.55;;;12.60;;
68256;SDS011;55069;51.568;4.656;2023-03-19T07:10:20;19.47;;;11.63;;
68256;SDS011;55069;51.568;4.656;2023-03-19T07:12:46;21.00;;;11.55;;
68256;SDS011;55069;51.568;4.656;2023-03-19T07:15:12;23.67;;;13.02;;
68256;SDS011;55069;51.568;4.656;2023-03-19T07:17:38;19.00;;;12.18;;
68256;SDS011;55069;51.568;4.656;2023-03-19T07:20:04;21.42;;;12.25;;
68256;SDS011;55069;51.568;4.656;2023-03-19T07:22:30;22.33;;;11.85;;
68256;SDS011;55069;51.568;4.656;2023-03-19T07:24:56;19.97;;;11.77;;
68256;SDS011;55069;51.568;4.656;2023-03-19T07:27:22;24.65;;;12.15;;
68256;SDS011;55069;51.568;4.656;2023-03-19T07:29:47;26.67;;;12.47;;
68256;SDS011;55069;51.568;4.656;2023-03-19T07:32:13;25.27;;;11.80;;
68256;SDS011;55069;51.568;4.656;2023-03-19T07:34:39;22.27;;;11.43;;
68256;SDS011;55069;51.568;4.656;2023-03-19T07:37:05;25.17;;;12.05;;
68256;SDS011;55069;51.568;4.656;2023-03-19T07:39:31;22.58;;;11.05;;
68256;SDS011;55069;51.568;4.656;2023-03-19T07:41:57;17.75;;;10.35;;
68256;SDS011;55069;51.568;4.656;2023-03-19T07:44:23;25.73;;;10.87;;
68256;SDS011;55069;51.568;4.656;2023-03-19T07:46:48;20.52;;;9.15;;
68256;SDS011;55069;51.568;4.656;2023-03-19T07:49:14;16.50;;;9.63;;
68256;SDS011;55069;51.568;4.656;2023-03-19T07:51:40;18.65;;;9.52;;
68256;SDS011;55069;51.568;4.656;2023-03-19T07:54:05;22.00;;;10.25;;
68256;SDS011;55069;51.568;4.656;2023-03-19T07:56:31;23.87;;;9.40;;
68256;SDS011;55069;51.568;4.656;2023-03-19T07:58:57;18.75;;;9.20;;
68256;SDS011;55069;51.568;4.656;2023-03-19T08:01:24;24.35;;;10.93;;
68256;SDS011;55069;51.568;4.656;2023-03-19T08:03:50;23.38;;;10.48;;
68256;SDS011;55069;51.568;4.656;2023-03-19T08:06:15;20.67;;;9.80;;
68256;SDS011;55069;51.568;4.656;2023-03-19T08:08:43;23.80;;;9.38;;
68256;SDS011;55069;51.568;4.656;2023-03-19T08:11:08;22.30;;;10.20;;
68256;SDS011;55069;51.568;4.656;2023-03-19T08:13:34;20.45;;;9.32;;
68256;SDS011;55069;51.568;4.656;2023-03-19T08:15:59;21.10;;;8.53;;
68256;SDS011;55069;51.568;4.656;2023-03-19T08:18:25;21.47;;;9.37;;
68256;SDS011;55069;51.568;4.656;2023-03-19T08:20:51;15.82;;;8.70;;
68256;SDS011;55069;51.568;4.656;2023-03-19T08:23:17;22.80;;;9.73;;
68256;SDS011;55069;51.568;4.656;2023-03-19T08:25:43;23.93;;;9.70;;
68256;SDS011;55069;51.568;4.656;2023-03-19T08:28:09;21.08;;;8.98;;
68256;SDS011;55069;51.568;4.656;2023-03-19T08:30:36;22.80;;;9.52;;
68256;SDS011;55069;51.568;4.656;2023-03-19T08:33:02;20.52;;;8.70;;
68256;SDS011;55069;51.568;4.656;2023-03-19T08:35:27;20.40;;;9.27;;
68256;SDS011;55069;51.568;4.656;2023-03-19T08:37:54;20.90;;;8.98;;
68256;SDS011;55069;51.568;4.656;2023-03-19T08:40:20;20.08;;;8.70;;
68256;SDS011;55069;51.568;4.656;2023-03-19T08:42:46;22.17;;;9.68;;
68256;SDS011;55069;51.568;4.656;2023-03-19T08:45:13;23.02;;;10.63;;
68256;SDS011;55069;51.568;4.656;2023-03-19T08:47:40;25.80;;;10.97;;
68256;SDS011;55069;51.568;4.656;2023-03-19T08:50:07;25.48;;;12.38;;
68256;SDS011;55069;51.568;4.656;2023-03-19T08:52:34;28.92;;;13.05;;
68256;SDS011;55069;51.568;4.656;2023-03-19T08:55:00;33.65;;;16.08;;
68256;SDS011;55069;51.568;4.656;2023-03-19T08:57:25;35.03;;;15.00;;
68256;SDS011;55069;51.568;4.656;2023-03-19T08:59:51;27.93;;;14.90;;
68256;SDS011;55069;51.568;4.656;2023-03-19T09:02:17;28.88;;;14.68;;
68256;SDS011;55069;51.568;4.656;2023-03-19T09:04:43;34.08;;;15.25;;
68256;SDS011;55069;51.568;4.656;2023-03-19T09:07:09;33.73;;;15.60;;
68256;SDS011;55069;51.568;4.656;2023-03-19T09:09:38;32.03;;;15.75;;
68256;SDS011;55069;51.568;4.656;2023-03-19T09:12:05;33.30;;;15.13;;
68256;SDS011;55069;51.568;4.656;2023-03-19T09:14:31;26.27;;;14.13;;
68256;SDS011;55069;51.568;4.656;2023-03-19T09:16:58;26.50;;;13.77;;
68256;SDS011;55069;51.568;4.656;2023-03-19T09:19:24;29.00;;;13.95;;
68256;SDS011;55069;51.568;4.656;2023-03-19T09:21:50;32.05;;;15.13;;
68256;SDS011;55069;51.568;4.656;2023-03-19T09:24:16;32.20;;;15.30;;
68256;SDS011;55069;51.568;4.656;2023-03-19T09:26:43;29.63;;;14.68;;
68256;SDS011;55069;51.568;4.656;2023-03-19T09:29:10;28.38;;;14.43;;
68256;SDS011;55069;51.568;4.656;2023-03-19T09:31:35;25.77;;;13.40;;
68256;SDS011;55069;51.568;4.656;2023-03-19T09:34:02;28.52;;;13.70;;
68256;SDS011;55069;51.568;4.656;2023-03-19T09:36:28;26.67;;;15.33;;
68256;SDS011;55069;51.568;4.656;2023-03-19T09:38:53;30.50;;;16.08;;
68256;SDS011;55069;51.568;4.656;2023-03-19T09:44:08;29.05;;;15.25;;
68256;SDS011;55069;51.568;4.656;2023-03-19T09:49:54;38.13;;;15.90;;
68256;SDS011;55069;51.568;4.656;2023-03-19T09:54:58;26.90;;;15.23;;
68256;SDS011;55069;51.568;4.656;2023-03-19T09:57:27;31.13;;;16.77;;
68256;SDS011;55069;51.568;4.656;2023-03-19T09:59:54;29.42;;;15.10;;
68256;SDS011;55069;51.568;4.656;2023-03-19T10:04:49;22.67;;;14.55;;
68256;SDS011;55069;51.568;4.656;2023-03-19T10:07:53;31.37;;;15.97;;
68256;SDS011;55069;51.568;4.656;2023-03-19T10:10:28;29.60;;;14.95;;
68256;SDS011;55069;51.568;4.656;2023-03-19T10:13:26;30.38;;;16.55;;
68256;SDS011;55069;51.568;4.656;2023-03-19T10:16:04;25.75;;;13.20;;
68256;SDS011;55069;51.568;4.656;2023-03-19T10:18:34;25.70;;;13.65;;
68256;SDS011;55069;51.568;4.656;2023-03-19T10:21:15;25.27;;;13.70;;
68256;SDS011;55069;51.568;4.656;2023-03-19T10:26:48;26.38;;;15.38;;
68256;SDS011;55069;51.568;4.656;2023-03-19T10:29:26;23.67;;;13.20;;
68256;SDS011;55069;51.568;4.656;2023-03-19T10:32:02;29.80;;;14.88;;
68256;SDS011;55069;51.568;4.656;2023-03-19T10:34:47;30.63;;;15.90;;
68256;SDS011;55069;51.568;4.656;2023-03-19T10:37:16;36.88;;;16.02;;
68256;SDS011;55069;51.568;4.656;2023-03-19T10:39:51;28.88;;;15.77;;
68256;SDS011;55069;51.568;4.656;2023-03-19T10:47:51;29.53;;;15.67;;
68256;SDS011;55069;51.568;4.656;2023-03-19T10:50:30;30.55;;;16.45;;
68256;SDS011;55069;51.568;4.656;2023-03-19T10:53:03;31.92;;;16.52;;
68256;SDS011;55069;51.568;4.656;2023-03-19T10:55:52;33.50;;;17.15;;
68256;SDS011;55069;51.568;4.656;2023-03-19T10:58:21;34.65;;;18.15;;
68256;SDS011;55069;51.568;4.656;2023-03-19T11:00:54;33.73;;;17.63;;
68256;SDS011;55069;51.568;4.656;2023-03-19T11:03:28;31.52;;;17.08;;
68256;SDS011;55069;51.568;4.656;2023-03-19T11:06:04;31.65;;;15.88;;
68256;SDS011;55069;51.568;4.656;2023-03-19T11:08:35;31.25;;;14.68;;
68256;SDS011;55069;51.568;4.656;2023-03-19T11:11:02;30.30;;;15.02;;
68256;SDS011;55069;51.568;4.656;2023-03-19T11:13:28;23.50;;;13.00;;
68256;SDS011;55069;51.568;4.656;2023-03-19T11:15:56;23.50;;;12.95;;
68256;SDS011;55069;51.568;4.656;2023-03-19T11:18:28;24.58;;;13.20;;
68256;SDS011;55069;51.568;4.656;2023-03-19T11:20:57;21.48;;;12.30;;
68256;SDS011;55069;51.568;4.656;2023-03-19T11:23:29;22.60;;;12.43;;
68256;SDS011;55069;51.568;4.656;2023-03-19T11:26:01;23.33;;;12.50;;
68256;SDS011;55069;51.568;4.656;2023-03-19T11:28:28;25.60;;;14.25;;
68256;SDS011;55069;51.568;4.656;2023-03-19T11:47:14;31.10;;;15.95;;
68256;SDS011;55069;51.568;4.656;2023-03-19T11:49:55;35.08;;;18.08;;
68256;SDS011;55069;51.568;4.656;2023-03-19T11:56:01;39.92;;;20.00;;
68256;SDS011;55069;51.568;4.656;2023-03-19T12:01:17;36.42;;;18.58;;
68256;SDS011;55069;51.568;4.656;2023-03-19T12:09:59;38.30;;;17.73;;
68256;SDS011;55069;51.568;4.656;2023-03-19T12:15:26;35.03;;;18.48;;
68256;SDS011;55069;51.568;4.656;2023-03-19T12:21:10;35.90;;;17.77;;
68256;SDS011;55069;51.568;4.656;2023-03-19T12:31:54;27.08;;;15.98;;
68256;SDS011;55069;51.568;4.656;2023-03-19T12:34:46;29.30;;;15.97;;
68256;SDS011;55069;51.568;4.656;2023-03-19T12:37:27;28.38;;;15.82;;
68256;SDS011;55069;51.568;4.656;2023-03-19T12:42:48;27.48;;;16.73;;
68256;SDS011;55069;51.568;4.656;2023-03-19T12:45:20;29.73;;;16.13;;
68256;SDS011;55069;51.568;4.656;2023-03-19T12:47:51;31.15;;;16.48;;
68256;SDS011;55069;51.568;4.656;2023-03-19T12:50:22;26.38;;;15.85;;
68256;SDS011;55069;51.568;4.656;2023-03-19T12:52:50;29.52;;;16.73;;
68256;SDS011;55069;51.568;4.656;2023-03-19T13:00:32;32.22;;;16.27;;
68256;SDS011;55069;51.568;4.656;2023-03-19T13:08:40;27.47;;;14.60;;
68256;SDS011;55069;51.568;4.656;2023-03-19T13:11:57;24.83;;;11.93;;
68256;SDS011;55069;51.568;4.656;2023-03-19T13:14:01;23.17;;;11.93;;
68256;SDS011;55069;51.568;4.656;2023-03-19T13:22:17;18.07;;;10.50;;
68256;SDS011;55069;51.568;4.656;2023-03-19T13:24:46;19.23;;;11.30;;
68256;SDS011;55069;51.568;4.656;2023-03-19T13:27:18;21.23;;;12.10;;
68256;SDS011;55069;51.568;4.656;2023-03-19T13:29:55;21.90;;;12.98;;
68256;SDS011;55069;51.568;4.656;2023-03-19T13:32:33;23.35;;;12.32;;
68256;SDS011;55069;51.568;4.656;2023-03-19T13:35:24;20.40;;;12.00;;
68256;SDS011;55069;51.568;4.656;2023-03-19T13:38:25;24.30;;;13.02;;
68256;SDS011;55069;51.568;4.656;2023-03-19T13:40:51;20.38;;;11.27;;
68256;SDS011;55069;51.568;4.656;2023-03-19T13:45:51;25.55;;;13.98;;
68256;SDS011;55069;51.568;4.656;2023-03-19T13:53:40;28.38;;;15.52;;
68256;SDS011;55069;51.568;4.656;2023-03-19T13:56:16;25.23;;;14.60;;
68256;SDS011;55069;51.568;4.656;2023-03-19T14:06:38;13.18;;;8.35;;
68256;SDS011;55069;51.568;4.656;2023-03-19T14:09:26;14.73;;;8.52;;
68256;SDS011;55069;51.568;4.656;2023-03-19T14:14:51;14.37;;;7.90;;
68256;SDS011;55069;51.568;4.656;2023-03-19T14:17:23;14.77;;;7.88;;
68256;SDS011;55069;51.568;4.656;2023-03-19T14:19:52;16.65;;;7.65;;
68256;SDS011;55069;51.568;4.656;2023-03-19T14:22:20;11.70;;;7.18;;
68256;SDS011;55069;51.568;4.656;2023-03-19T14:25:50;10.73;;;6.90;;
68256;SDS011;55069;51.568;4.656;2023-03-19T14:27:47;10.73;;;6.80;;
68256;SDS011;55069;51.568;4.656;2023-03-19T14:32:56;10.82;;;6.80;;
68256;SDS011;55069;51.568;4.656;2023-03-19T14:35:26;14.75;;;5.95;;
68256;SDS011;55069;51.568;4.656;2023-03-19T14:37:53;9.32;;;5.75;;
68256;SDS011;55069;51.568;4.656;2023-03-19T14:40:23;13.10;;;6.93;;
68256;SDS011;55069;51.568;4.656;2023-03-19T14:53:52;13.57;;;7.50;;
68256;SDS011;55069;51.568;4.656;2023-03-19T14:56:30;10.77;;;6.78;;
68256;SDS011;55069;51.568;4.656;2023-03-19T14:58:58;10.77;;;6.18;;
68256;SDS011;55069;51.568;4.656;2023-03-19T15:01:32;10.90;;;6.00;;
68256;SDS011;55069;51.568;4.656;2023-03-19T15:04:05;12.23;;;6.82;;
68256;SDS011;55069;51.568;4.656;2023-03-19T15:06:41;12.43;;;6.50;;
68256;SDS011;55069;51.568;4.656;2023-03-19T15:09:20;12.80;;;6.95;;
68256;SDS011;55069;51.568;4.656;2023-03-19T15:17:30;13.05;;;7.07;;
68256;SDS011;55069;51.568;4.656;2023-03-19T15:20:00;16.13;;;7.13;;
68256;SDS011;55069;51.568;4.656;2023-03-19T15:22:30;12.52;;;6.18;;
68256;SDS011;55069;51.568;4.656;2023-03-19T15:25:08;13.18;;;5.28;;
68256;SDS011;55069;51.568;4.656;2023-03-19T15:27:35;12.77;;;5.07;;
68256;SDS011;55069;51.568;4.656;2023-03-19T15:30:01;11.52;;;5.50;;
68256;SDS011;55069;51.568;4.656;2023-03-19T15:32:35;12.60;;;5.93;;
68256;SDS011;55069;51.568;4.656;2023-03-19T15:35:03;12.60;;;6.97;;
68256;SDS011;55069;51.568;4.656;2023-03-19T15:37:31;14.65;;;6.97;;
68256;SDS011;55069;51.568;4.656;2023-03-19T15:40:01;11.80;;;6.32;;
68256;SDS011;55069;51.568;4.656;2023-03-19T15:42:31;11.40;;;6.50;;
68256;SDS011;55069;51.568;4.656;2023-03-19T15:45:02;12.07;;;6.13;;
68256;SDS011;55069;51.568;4.656;2023-03-19T15:47:34;14.10;;;6.00;;
68256;SDS011;55069;51.568;4.656;2023-03-19T15:50:09;12.55;;;6.30;;
68256;SDS011;55069;51.568;4.656;2023-03-19T15:52:39;16.50;;;7.45;;
68256;SDS011;55069;51.568;4.656;2023-03-19T15:55:07;15.57;;;6.82;;
68256;SDS011;55069;51.568;4.656;2023-03-19T15:57:35;11.83;;;6.03;;
68256;SDS011;55069;51.568;4.656;2023-03-19T16:00:02;11.80;;;6.13;;
68256;SDS011;55069;51.568;4.656;2023-03-19T16:02:41;10.93;;;5.07;;
68256;SDS011;55069;51.568;4.656;2023-03-19T16:05:26;11.20;;;5.13;;
68256;SDS011;55069;51.568;4.656;2023-03-19T16:07:56;7.95;;;4.65;;
68256;SDS011;55069;51.568;4.656;2023-03-19T16:12:53;8.77;;;5.00;;
68256;SDS011;55069;51.568;4.656;2023-03-19T16:17:52;6.60;;;3.75;;
68256;SDS011;55069;51.568;4.656;2023-03-19T16:20:18;10.93;;;4.10;;
68256;SDS011;55069;51.568;4.656;2023-03-19T16:22:47;6.55;;;3.25;;
68256;SDS011;55069;51.568;4.656;2023-03-19T16:25:19;7.43;;;3.67;;
68256;SDS011;55069;51.568;4.656;2023-03-19T16:27:49;9.25;;;4.47;;
68256;SDS011;55069;51.568;4.656;2023-03-19T16:33:01;7.05;;;4.13;;
68256;SDS011;55069;51.568;4.656;2023-03-19T16:35:28;7.95;;;3.65;;
68256;SDS011;55069;51.568;4.656;2023-03-19T16:40:49;5.88;;;3.20;;
68256;SDS011;55069;51.568;4.656;2023-03-19T16:43:45;6.03;;;3.17;;
68256;SDS011;55069;51.568;4.656;2023-03-19T16:46:12;4.10;;;2.80;;
68256;SDS011;55069;51.568;4.656;2023-03-19T16:48:41;5.70;;;3.42;;
68256;SDS011;55069;51.568;4.656;2023-03-19T16:51:17;6.38;;;3.22;;
68256;SDS011;55069;51.568;4.656;2023-03-19T16:53:45;7.18;;;2.83;;
68256;SDS011;55069;51.568;4.656;2023-03-19T16:56:13;6.53;;;3.83;;
68256;SDS011;55069;51.568;4.656;2023-03-19T16:58:41;8.85;;;3.85;;
68256;SDS011;55069;51.568;4.656;2023-03-19T17:01:15;4.63;;;3.10;;